createdAt,value
2019-04-23T00:00:32.856Z,1000.41
2019-04-23T00:01:35.090Z,1000.33
2019-04-23T00:02:29.806Z,1000.30
2019-04-23T00:03:34.338Z,1000.36
2019-04-23T00:04:31.463Z,1000.23
2019-04-23T00:06:40.752Z,1000.26
2019-04-23T00:07:44.410Z,1000.26
2019-04-23T00:08:44.872Z,1000.19
2019-04-23T00:09:34.102Z,1000.22
2019-04-23T00:10:53.392Z,1000.13
2019-04-23T00:11:32.529Z,1000.18
2019-04-23T00:12:47.821Z,1000.19
2019-04-23T00:13:38.740Z,1000.17
2019-04-23T00:14:41.009Z,1000.10
2019-04-23T00:15:30.781Z,1000.18
2019-04-23T00:16:42.200Z,1000.21
2019-04-23T00:17:37.140Z,1000.17
2019-04-23T00:18:44.627Z,1000.21
2019-04-23T00:19:31.047Z,1000.19
2019-04-23T00:20:39.229Z,1000.16
2019-04-23T00:21:38.142Z,1000.15
2019-04-23T00:22:39.812Z,1000.08
2019-04-23T00:23:46.264Z,1000.09
2019-04-23T00:24:56.847Z,1000.13
2019-04-23T00:25:51.113Z,1000.11
2019-04-23T00:26:40.294Z,1000.10
2019-04-23T00:27:44.233Z,1000.02
2019-04-23T00:28:42.268Z,1000.03
2019-04-23T00:29:45.959Z,1000.01
2019-04-23T00:30:43.992Z,1000.02
2019-04-23T00:31:40.877Z,1000.00
2019-04-23T00:33:34.515Z,1000.02
2019-04-23T00:34:41.416Z,999.96
2019-04-23T00:35:38.862Z,999.99
2019-04-23T00:36:42.359Z,999.97
2019-04-23T00:37:37.385Z,999.95
2019-04-23T00:38:40.272Z,999.97
2019-04-23T00:39:42.480Z,1000.01
2019-04-23T00:40:39.112Z,1000.03
2019-04-23T00:42:41.655Z,999.96
2019-04-23T00:43:42.902Z,999.90
2019-04-23T00:44:46.025Z,999.98
2019-04-23T00:46:45.202Z,999.94
2019-04-23T00:48:42.784Z,999.91
2019-04-23T00:49:46.876Z,999.94
2019-04-23T00:50:52.949Z,999.91
2019-04-23T00:51:42.703Z,999.93
2019-04-23T00:52:38.903Z,999.88
2019-04-23T00:53:38.937Z,999.89
2019-04-23T00:54:49.123Z,999.85
2019-04-23T00:55:43.063Z,999.87
2019-04-23T00:56:45.944Z,999.86
2019-04-23T00:57:48.872Z,999.87
2019-04-23T00:58:51.443Z,999.85
2019-04-23T00:59:46.791Z,999.87
2019-04-23T01:00:45.966Z,999.86
2019-04-23T01:01:49.647Z,999.83
2019-04-23T01:02:51.572Z,999.76
2019-04-23T01:03:44.999Z,999.85
2019-04-23T01:04:52.770Z,999.84
2019-04-23T01:05:41.013Z,999.84
2019-04-23T01:06:45.965Z,999.73
2019-04-23T01:07:45.193Z,999.70
2019-04-23T01:08:49.795Z,999.70
2019-04-23T01:09:45.724Z,999.71
2019-04-23T01:10:52.548Z,999.75
2019-04-23T01:11:43.369Z,999.78
2019-04-23T01:12:51.553Z,999.77
2019-04-23T01:14:48.685Z,999.71
2019-04-23T01:15:46.157Z,999.68
2019-04-23T01:16:45.977Z,999.74
2019-04-23T01:17:46.875Z,999.69
2019-04-23T01:18:51.305Z,999.72
2019-04-23T01:20:50.311Z,999.63
2019-04-23T01:21:26.581Z,999.65
2019-04-23T01:22:25.165Z,999.66
2019-04-23T01:23:31.993Z,999.64
2019-04-23T01:24:30.722Z,999.66
2019-04-23T01:25:39.478Z,999.65
2019-04-23T01:27:00.242Z,999.67
2019-04-23T01:28:55.593Z,999.66
2019-04-23T01:29:58.619Z,999.58
2019-04-23T01:30:55.351Z,999.51
2019-04-23T01:31:55.093Z,999.58
2019-04-23T01:32:53.595Z,999.50
2019-04-23T01:34:11.448Z,999.51
2019-04-23T01:34:55.968Z,999.52
2019-04-23T01:37:00.845Z,999.48
2019-04-23T01:37:50.628Z,999.55
2019-04-23T01:39:01.832Z,999.54
2019-04-23T01:39:57.544Z,999.47
2019-04-23T01:40:55.589Z,999.56
2019-04-23T01:42:08.835Z,999.48
2019-04-23T01:43:07.512Z,999.43
2019-04-23T01:43:50.571Z,999.47
2019-04-23T01:45:05.256Z,999.42
2019-04-23T01:45:54.571Z,999.42
2019-04-23T01:46:54.180Z,999.47
2019-04-23T01:47:55.152Z,999.37
2019-04-23T01:48:58.198Z,999.51
2019-04-23T01:50:06.318Z,999.48
2019-04-23T01:52:00.337Z,999.46
2019-04-23T01:53:02.615Z,999.46
2019-04-23T01:53:58.749Z,999.43
2019-04-23T01:55:01.567Z,999.42
2019-04-23T01:56:03.054Z,999.41
2019-04-23T01:57:04.060Z,999.38
2019-04-23T01:58:59.212Z,999.30
2019-04-23T02:00:03.402Z,999.38
2019-04-23T02:01:00.882Z,999.31
2019-04-23T02:01:58.825Z,999.30
2019-04-23T02:03:18.174Z,999.25
2019-04-23T02:04:03.484Z,999.27
2019-04-23T02:05:08.983Z,999.25
2019-04-23T02:06:04.902Z,999.23
2019-04-23T02:07:06.228Z,999.17
2019-04-23T02:08:03.646Z,999.24
2019-04-23T02:09:48.389Z,999.16
2019-04-23T02:10:09.184Z,999.13
2019-04-23T02:11:11.784Z,999.17
2019-04-23T02:12:07.595Z,999.15
2019-04-23T02:13:16.420Z,999.11
2019-04-23T02:14:03.744Z,999.05
2019-04-23T02:15:02.277Z,999.12
2019-04-23T02:15:59.956Z,999.08
2019-04-23T02:17:04.626Z,999.07
2019-04-23T02:18:08.532Z,999.05
2019-04-23T02:19:07.599Z,998.97
2019-04-23T02:20:09.213Z,998.93
2019-04-23T02:21:02.387Z,998.94
2019-04-23T02:22:06.560Z,998.96
2019-04-23T02:23:16.564Z,998.96
2019-04-23T02:23:57.211Z,998.90
2019-04-23T02:25:03.569Z,998.94
2019-04-23T02:26:02.721Z,998.96
2019-04-23T02:27:05.190Z,998.84
2019-04-23T02:29:13.306Z,998.81
2019-04-23T02:30:28.937Z,998.84
2019-04-23T02:31:25.272Z,998.85
2019-04-23T02:35:16.947Z,998.75
2019-04-23T02:36:26.516Z,998.73
2019-04-23T02:37:13.423Z,998.86
2019-04-23T02:39:01.027Z,998.63
2019-04-23T02:46:16.707Z,998.78
2019-04-23T02:48:19.883Z,998.67
2019-04-23T02:49:18.111Z,998.65
2019-04-23T02:50:33.136Z,998.58
2019-04-23T02:51:22.117Z,998.68
2019-04-23T02:52:18.873Z,998.67
2019-04-23T02:54:26.777Z,998.62
2019-04-23T02:55:17.197Z,998.64
2019-04-23T02:56:24.232Z,998.52
2019-04-23T02:57:13.257Z,998.53
2019-04-23T03:03:27.954Z,998.47
2019-04-23T03:05:36.051Z,998.65
2019-04-23T03:06:20.819Z,998.64
2019-04-23T03:07:26.724Z,998.62
2019-04-23T03:08:24.924Z,998.63
2019-04-23T03:09:20.581Z,998.64
2019-04-23T03:10:21.168Z,998.58
2019-04-23T03:12:27.099Z,998.62
2019-04-23T03:13:28.765Z,998.61
2019-04-23T03:14:26.783Z,998.63
2019-04-23T03:15:36.210Z,998.61
2019-04-23T03:17:36.531Z,998.58
2019-04-23T03:19:25.499Z,998.70
2019-04-23T03:21:27.024Z,998.60
2019-04-23T03:22:15.254Z,998.60
2019-04-23T03:23:31.864Z,998.59
2019-04-23T03:24:34.600Z,998.58
2019-04-23T03:28:27.373Z,998.62
2019-04-23T03:35:16.034Z,998.59
2019-04-23T03:39:30.528Z,998.72
2019-04-23T03:40:43.161Z,998.64
2019-04-23T03:41:41.126Z,998.64
2019-04-23T03:42:30.577Z,998.63
2019-04-23T03:44:29.814Z,998.65
2019-04-23T03:45:37.060Z,998.67
2019-04-23T03:48:32.410Z,998.68
2019-04-23T03:49:33.340Z,998.68
2019-04-23T03:50:28.441Z,998.69
2019-04-23T03:51:26.048Z,998.66
2019-04-23T03:52:36.891Z,998.65
2019-04-23T03:53:32.737Z,998.65
2019-04-23T03:55:51.698Z,998.73
2019-04-23T03:56:33.868Z,998.69
2019-04-23T03:58:38.719Z,998.70
2019-04-23T03:59:39.310Z,998.65
2019-04-23T04:00:37.099Z,998.68
2019-04-23T04:01:48.616Z,998.61
2019-04-23T04:03:55.030Z,998.61
2019-04-23T04:04:35.002Z,998.64
2019-04-23T04:08:31.316Z,998.69
2019-04-23T04:09:34.274Z,998.72
2019-04-23T04:10:36.008Z,998.71
2019-04-23T04:12:39.652Z,998.65
2019-04-23T04:14:38.921Z,998.67
2019-04-23T04:16:34.293Z,998.62
2019-04-23T04:17:32.944Z,998.66
2019-04-23T04:18:37.891Z,998.60
2019-04-23T04:19:41.750Z,998.60
2019-04-23T04:20:55.782Z,998.62
2019-04-23T04:21:36.870Z,998.58
2019-04-23T04:23:43.537Z,998.61
2019-04-23T04:24:37.029Z,998.57
2019-04-23T04:25:44.921Z,998.55
2019-04-23T04:28:38.873Z,998.50
2019-04-23T04:30:41.013Z,998.50
2019-04-23T04:32:56.501Z,998.54
2019-04-23T04:33:52.237Z,998.52
2019-04-23T04:35:47.788Z,998.61
2019-04-23T04:38:40.547Z,998.56
2019-04-23T04:39:42.231Z,998.54
2019-04-23T04:40:42.298Z,998.52
2019-04-23T04:41:40.375Z,998.53
2019-04-23T04:42:32.963Z,998.51
2019-04-23T04:43:45.944Z,998.45
2019-04-23T04:44:42.676Z,998.44
2019-04-23T04:46:39.433Z,998.40
2019-04-23T04:48:40.184Z,998.41
2019-04-23T04:49:51.033Z,998.43
2019-04-23T04:50:43.624Z,998.44
2019-04-23T04:51:48.906Z,998.41
2019-04-23T04:55:58.224Z,998.24
2019-04-23T04:58:52.886Z,998.13
2019-04-23T04:59:50.976Z,998.12
2019-04-23T05:01:37.985Z,998.12
2019-04-23T05:03:03.394Z,998.08
2019-04-23T05:07:42.181Z,998.08
2019-04-23T05:09:48.156Z,997.97
2019-04-23T05:11:45.403Z,997.90
2019-04-23T05:12:39.031Z,997.85
2019-04-23T05:13:47.208Z,997.79
2019-04-23T05:14:53.891Z,997.78
2019-04-23T05:15:37.343Z,997.64
2019-04-23T05:16:43.185Z,997.23
2019-04-23T05:18:46.730Z,996.18
2019-04-23T05:19:45.861Z,995.63
2019-04-23T05:20:46.876Z,994.99
2019-04-23T05:21:46.776Z,994.65
2019-04-23T05:23:54.100Z,995.01
2019-04-23T05:25:41.420Z,995.46
2019-04-23T05:27:47.139Z,995.36
2019-04-23T05:28:38.760Z,995.10
2019-04-23T05:29:38.565Z,995.06
2019-04-23T05:30:44.627Z,994.82
2019-04-23T05:31:32.578Z,994.77
2019-04-23T05:32:43.529Z,994.62
2019-04-23T05:33:39.082Z,994.76
2019-04-23T05:34:42.981Z,994.96
2019-04-23T05:36:09.170Z,995.27
2019-04-23T05:37:11.645Z,995.43
2019-04-23T05:37:52.884Z,995.60
2019-04-23T05:39:52.144Z,995.94
2019-04-23T05:40:45.059Z,996.04
2019-04-23T05:41:41.644Z,996.16
2019-04-23T05:42:49.860Z,996.14
2019-04-23T05:43:40.829Z,995.97
2019-04-23T05:44:43.269Z,996.04
2019-04-23T05:45:42.249Z,995.90
2019-04-23T05:46:37.813Z,995.81
2019-04-23T05:47:44.466Z,995.71
2019-04-23T05:48:40.502Z,995.64
2019-04-23T05:49:46.060Z,995.63
2019-04-23T05:51:52.052Z,995.74
2019-04-23T05:52:47.430Z,995.75
2019-04-23T05:53:46.674Z,995.82
2019-04-23T05:54:52.316Z,995.80
2019-04-23T05:55:49.300Z,995.27
2019-04-23T05:57:50.139Z,994.49
2019-04-23T05:58:45.411Z,994.40
2019-04-23T05:59:42.209Z,994.30
2019-04-23T06:00:50.934Z,994.30
2019-04-23T06:01:57.030Z,994.24
2019-04-23T06:02:53.717Z,994.40
2019-04-23T06:03:52.754Z,994.32
2019-04-23T06:04:42.226Z,994.32
2019-04-23T06:05:46.444Z,994.35
2019-04-23T06:07:49.675Z,994.36
2019-04-23T06:08:46.024Z,994.43
2019-04-23T06:09:48.400Z,994.55
2019-04-23T06:10:47.502Z,994.63
2019-04-23T06:11:54.242Z,994.74
2019-04-23T06:12:47.183Z,994.87
2019-04-23T06:13:56.128Z,994.84
2019-04-23T06:14:47.499Z,994.92
2019-04-23T06:15:49.218Z,995.05
2019-04-23T06:16:49.865Z,995.04
2019-04-23T06:17:47.543Z,995.09
2019-04-23T06:19:52.955Z,995.11
2019-04-23T06:20:55.573Z,995.14
2019-04-23T06:22:04.194Z,995.13
2019-04-23T06:23:11.274Z,995.16
2019-04-23T06:23:55.423Z,995.11
2019-04-23T06:24:45.063Z,995.08
2019-04-23T06:26:51.783Z,995.12
2019-04-23T06:28:48.757Z,995.02
2019-04-23T06:29:50.091Z,995.00
2019-04-23T06:30:58.946Z,995.02
2019-04-23T06:31:48.749Z,994.99
2019-04-23T06:32:51.268Z,994.95
2019-04-23T06:33:48.460Z,994.81
2019-04-23T06:35:54.864Z,993.35
2019-04-23T06:36:51.229Z,992.30
2019-04-23T06:38:14.686Z,991.64
2019-04-23T06:39:48.067Z,989.84
2019-04-23T06:40:56.925Z,989.56
2019-04-23T06:42:56.296Z,989.04
2019-04-23T06:44:00.391Z,988.89
2019-04-23T06:44:55.282Z,988.89
2019-04-23T06:45:49.387Z,988.89
2019-04-23T06:46:56.900Z,989.03
2019-04-23T06:47:56.375Z,989.02
2019-04-23T06:48:56.742Z,989.22
2019-04-23T06:50:58.204Z,989.20
2019-04-23T06:52:02.420Z,988.94
2019-04-23T06:52:50.028Z,988.20
2019-04-23T06:53:49.812Z,987.82
2019-04-23T06:55:09.380Z,987.61
2019-04-23T06:56:01.254Z,987.92
2019-04-23T06:57:03.815Z,987.58
2019-04-23T06:57:58.801Z,987.57
2019-04-23T06:58:48.961Z,987.85
2019-04-23T06:59:54.740Z,988.15
2019-04-23T07:00:59.192Z,988.57
2019-04-23T07:01:59.389Z,988.86
2019-04-23T07:02:57.012Z,989.14
2019-04-23T07:04:02.563Z,989.30
2019-04-23T07:06:11.833Z,989.42
2019-04-23T07:07:21.721Z,989.65
2019-04-23T07:07:59.701Z,990.06
2019-04-23T07:09:08.189Z,990.55
2019-04-23T07:09:58.050Z,991.00
2019-04-23T07:10:57.631Z,991.49
2019-04-23T07:11:57.325Z,991.89
2019-04-23T07:12:59.359Z,992.19
2019-04-23T07:13:57.138Z,992.36
2019-04-23T07:15:02.439Z,992.59
2019-04-23T07:15:55.139Z,992.76
2019-04-23T07:16:59.208Z,992.91
2019-04-23T07:17:55.352Z,992.96
2019-04-23T07:19:04.282Z,993.16
2019-04-23T07:20:04.309Z,993.18
2019-04-23T07:21:01.249Z,993.38
2019-04-23T07:22:12.096Z,993.42
2019-04-23T07:23:06.108Z,993.47
2019-04-23T07:25:06.113Z,993.61
2019-04-23T07:26:10.540Z,993.73
2019-04-23T07:26:53.165Z,993.74
2019-04-23T07:28:08.661Z,993.64
2019-04-23T07:30:08.317Z,993.87
2019-04-23T07:31:07.399Z,993.83
2019-04-23T07:32:03.542Z,993.85
2019-04-23T07:33:07.325Z,993.91
2019-04-23T07:34:01.090Z,993.93
2019-04-23T07:35:11.644Z,993.94
2019-04-23T07:36:03.790Z,993.91
2019-04-23T07:36:58.825Z,993.92
2019-04-23T07:38:13.094Z,993.98
2019-04-23T07:40:19.991Z,993.59
2019-04-23T07:41:05.697Z,992.75
2019-04-23T07:42:13.545Z,992.03
2019-04-23T07:43:03.277Z,991.18
2019-04-23T07:44:17.324Z,990.59
2019-04-23T07:45:04.453Z,990.09
2019-04-23T07:46:10.530Z,989.98
2019-04-23T07:49:08.792Z,990.39
2019-04-23T07:50:15.971Z,990.55
2019-04-23T07:51:03.681Z,990.68
2019-04-23T07:52:10.705Z,990.79
2019-04-23T07:54:11.059Z,990.59
2019-04-23T07:55:06.801Z,990.53
2019-04-23T07:56:07.697Z,990.21
2019-04-23T07:57:21.865Z,989.95
2019-04-23T07:58:17.274Z,989.93
2019-04-23T07:59:07.247Z,990.00
2019-04-23T08:01:04.804Z,990.06
2019-04-23T08:02:14.530Z,989.99
2019-04-23T08:03:17.831Z,990.15
2019-04-23T08:04:10.643Z,990.44
2019-04-23T08:05:15.523Z,990.56
2019-04-23T08:06:04.360Z,990.89
2019-04-23T08:07:08.328Z,991.04
2019-04-23T08:08:07.519Z,991.12
2019-04-23T08:09:08.812Z,991.22
2019-04-23T08:10:17.103Z,990.98
2019-04-23T08:12:13.338Z,990.07
2019-04-23T08:14:08.160Z,988.98
2019-04-23T08:15:16.003Z,988.86
2019-04-23T08:16:18.350Z,988.78
2019-04-23T08:17:12.458Z,988.87
2019-04-23T08:18:13.550Z,989.01
2019-04-23T08:19:05.753Z,989.08
2019-04-23T08:20:19.411Z,989.04
2019-04-23T08:21:09.820Z,988.85
2019-04-23T08:22:22.214Z,988.78
2019-04-23T08:23:09.531Z,988.73
2019-04-23T08:24:06.639Z,988.59
2019-04-23T08:25:12.573Z,988.43
2019-04-23T08:26:20.156Z,988.64
2019-04-23T08:27:22.659Z,988.73
2019-04-23T08:28:21.092Z,988.67
2019-04-23T08:30:06.440Z,988.50
2019-04-23T08:31:15.125Z,988.47
2019-04-23T08:32:19.002Z,988.46
2019-04-23T08:33:12.085Z,988.45
2019-04-23T08:35:16.446Z,988.52
2019-04-23T08:37:15.083Z,988.71
2019-04-23T08:38:22.888Z,988.71
2019-04-23T08:39:21.104Z,988.71
2019-04-23T08:40:13.210Z,988.67
2019-04-23T08:43:25.116Z,989.15
2019-04-23T08:46:05.765Z,989.09
2019-04-23T08:47:24.773Z,989.12
2019-04-23T08:48:17.290Z,989.17
2019-04-23T08:49:11.457Z,989.23
2019-04-23T08:50:27.480Z,989.35
2019-04-23T08:51:23.779Z,989.42
2019-04-23T08:52:14.763Z,989.45
2019-04-23T08:53:22.665Z,989.27
2019-04-23T08:54:21.955Z,989.43
2019-04-23T08:55:13.821Z,989.45
2019-04-23T08:56:12.012Z,989.69
2019-04-23T08:57:14.539Z,989.75
2019-04-23T08:58:17.112Z,989.90
2019-04-23T09:00:00.385Z,990.00
2019-04-23T09:00:17.842Z,990.03
2019-04-23T09:01:10.837Z,990.10
2019-04-23T09:03:18.867Z,990.20
2019-04-23T09:04:18.545Z,990.31
2019-04-23T09:05:16.416Z,990.28
2019-04-23T09:07:16.829Z,990.17
2019-04-23T09:08:21.378Z,990.05
2019-04-23T09:09:20.162Z,990.02
2019-04-23T09:10:20.878Z,990.11
2019-04-23T09:11:30.880Z,990.11
2019-04-23T09:12:26.879Z,990.11
2019-04-23T09:13:45.088Z,990.06
2019-04-23T09:14:20.035Z,989.90
2019-04-23T09:15:23.431Z,989.95
2019-04-23T09:16:15.565Z,989.91
2019-04-23T09:17:16.767Z,990.00
2019-04-23T09:18:17.932Z,989.86
2019-04-23T09:21:16.903Z,989.59
2019-04-23T09:22:21.988Z,989.54
2019-04-23T09:23:18.622Z,989.55
2019-04-23T09:24:24.182Z,989.62
2019-04-23T09:25:30.049Z,989.64
2019-04-23T09:26:15.698Z,989.75
2019-04-23T09:27:22.715Z,989.80
2019-04-23T09:28:27.596Z,989.86
2019-04-23T09:29:19.954Z,989.84
2019-04-23T09:30:24.536Z,989.92
2019-04-23T09:31:43.563Z,989.99
2019-04-23T09:33:24.307Z,990.06
2019-04-23T09:34:22.451Z,990.02
2019-04-23T09:35:24.063Z,989.95
2019-04-23T09:36:20.482Z,990.02
2019-04-23T09:38:23.730Z,989.95
2019-04-23T09:39:20.614Z,989.89
2019-04-23T09:40:41.531Z,989.86
2019-04-23T09:41:24.275Z,989.77
2019-04-23T09:42:38.907Z,989.74
2019-04-23T09:43:22.655Z,989.64
2019-04-23T09:44:42.600Z,989.62
2019-04-23T09:45:24.858Z,989.59
2019-04-23T09:46:24.051Z,989.52
2019-04-23T09:47:34.260Z,989.59
2019-04-23T09:48:17.419Z,989.42
2019-04-23T09:49:26.065Z,989.50
2019-04-23T09:51:25.558Z,989.54
2019-04-23T09:52:27.236Z,989.56
2019-04-23T09:53:27.846Z,989.64
2019-04-23T09:54:32.499Z,989.63
2019-04-23T09:55:28.637Z,989.68
2019-04-23T09:56:23.141Z,989.68
2019-04-23T09:57:24.323Z,989.61
2019-04-23T09:58:18.655Z,989.63
2019-04-23T10:00:31.434Z,989.54
2019-04-23T10:01:39.371Z,989.51
2019-04-23T10:02:20.079Z,989.57
2019-04-23T10:03:16.642Z,989.41
2019-04-23T10:04:13.543Z,989.51
2019-04-23T10:05:11.165Z,989.45
2019-04-23T10:06:05.984Z,989.60
2019-04-23T10:07:12.533Z,989.74
2019-04-23T10:08:10.039Z,989.86
2019-04-23T10:09:02.661Z,989.90
2019-04-23T10:09:59.670Z,990.02
2019-04-23T10:10:57.563Z,989.95
2019-04-23T10:11:58.807Z,990.04
2019-04-23T10:13:00.100Z,990.02
2019-04-23T10:13:58.835Z,990.06
2019-04-23T10:15:09.324Z,990.10
2019-04-23T10:16:00.105Z,990.05
2019-04-23T10:16:59.886Z,990.02
2019-04-23T10:18:00.393Z,990.01
2019-04-23T10:19:01.027Z,990.07
2019-04-23T10:20:00.592Z,990.25
2019-04-23T10:21:01.436Z,990.09
2019-04-23T10:21:59.863Z,990.14
2019-04-23T10:23:02.132Z,990.09
2019-04-23T10:24:01.383Z,990.03
2019-04-23T10:25:01.211Z,990.02
2019-04-23T10:26:01.907Z,989.92
2019-04-23T10:27:00.205Z,990.01
2019-04-23T10:28:06.904Z,989.91
2019-04-23T10:29:02.544Z,989.95
2019-04-23T10:30:01.794Z,989.83
2019-04-23T10:31:02.843Z,989.80
2019-04-23T10:32:02.087Z,989.80
2019-04-23T10:33:03.333Z,989.75
2019-04-23T10:34:02.107Z,989.78
2019-04-23T10:35:14.689Z,989.78
2019-04-23T10:36:09.378Z,989.80
2019-04-23T10:37:02.944Z,989.78
2019-04-23T10:38:06.624Z,989.71
2019-04-23T10:39:11.598Z,989.85
2019-04-23T10:40:07.995Z,989.76
2019-04-23T10:41:04.626Z,989.79
2019-04-23T10:42:03.430Z,989.85
2019-04-23T10:43:05.516Z,989.74
2019-04-23T10:44:04.816Z,989.69
2019-04-23T10:45:19.368Z,989.71
2019-04-23T10:46:25.605Z,989.74
2019-04-23T10:47:30.220Z,989.83
2019-04-23T10:50:40.615Z,989.68
2019-04-23T10:52:30.575Z,989.56
2019-04-23T10:53:37.974Z,989.67
2019-04-23T10:55:44.785Z,989.56
2019-04-23T10:56:43.225Z,989.66
2019-04-23T10:57:46.108Z,989.70
2019-04-23T10:58:35.330Z,989.76
2019-04-23T10:59:43.256Z,989.73
2019-04-23T11:00:35.856Z,989.71
2019-04-23T11:01:32.083Z,989.76
2019-04-23T11:02:40.325Z,989.86
2019-04-23T11:03:52.087Z,989.89
2019-04-23T11:05:50.278Z,989.94
2019-04-23T11:06:50.729Z,990.01
2019-04-23T11:08:38.658Z,990.13
2019-04-23T11:09:52.886Z,990.21
2019-04-23T11:10:32.966Z,990.32
2019-04-23T11:11:34.487Z,990.28
2019-04-23T11:12:42.385Z,990.24
2019-04-23T11:13:38.235Z,990.23
2019-04-23T11:14:48.381Z,990.26
2019-04-23T11:15:55.830Z,990.32
2019-04-23T11:17:46.309Z,990.32
2019-04-23T11:18:55.319Z,990.30
2019-04-23T11:19:49.470Z,990.42
2019-04-23T11:20:43.791Z,990.42
2019-04-23T11:21:43.149Z,990.39
2019-04-23T11:23:42.662Z,990.34
2019-04-23T11:25:45.082Z,990.45
2019-04-23T11:26:42.429Z,990.43
2019-04-23T11:28:02.597Z,990.50
2019-04-23T11:28:41.338Z,990.45
2019-04-23T11:29:38.795Z,990.33
2019-04-23T11:33:44.314Z,990.43
2019-04-23T11:36:01.861Z,990.29
2019-04-23T11:39:45.212Z,990.18
2019-04-23T11:40:37.164Z,990.14
2019-04-23T11:41:51.814Z,990.20
2019-04-23T11:42:52.901Z,990.27
2019-04-23T11:44:45.748Z,990.35
2019-04-23T11:46:57.184Z,990.41
2019-04-23T11:48:13.838Z,990.39
2019-04-23T11:49:53.417Z,990.49
2019-04-23T11:51:18.512Z,990.54
2019-04-23T11:51:54.026Z,990.60
2019-04-23T11:52:50.073Z,990.51
2019-04-23T11:54:47.976Z,990.65
2019-04-23T11:56:03.929Z,990.53
2019-04-23T11:58:01.688Z,990.60
2019-04-23T11:58:47.661Z,990.75
2019-04-23T12:01:03.092Z,990.66
2019-04-23T12:01:52.632Z,990.67
2019-04-23T12:02:50.084Z,990.68
2019-04-23T12:03:58.654Z,990.63
2019-04-23T12:04:55.870Z,990.74
2019-04-23T12:05:57.005Z,990.69
2019-04-23T12:06:52.458Z,990.70
2019-04-23T12:07:52.063Z,990.73
2019-04-23T12:11:00.275Z,990.73
2019-04-23T12:12:44.844Z,990.59
2019-04-23T12:13:56.626Z,990.65
2019-04-23T12:14:46.705Z,990.67
2019-04-23T12:15:53.535Z,990.62
2019-04-23T12:17:05.638Z,990.61
2019-04-23T12:17:50.761Z,990.49
2019-04-23T12:19:14.359Z,990.46
2019-04-23T12:19:55.662Z,990.47
2019-04-23T12:21:04.091Z,990.38
2019-04-23T12:21:56.684Z,990.39
2019-04-23T12:23:57.244Z,990.19
2019-04-23T12:25:09.388Z,990.16
2019-04-23T12:25:58.242Z,990.18
2019-04-23T12:27:39.724Z,990.13
2019-04-23T12:29:05.880Z,990.12
2019-04-23T12:30:50.153Z,990.02
2019-04-23T12:31:56.980Z,990.05
2019-04-23T12:34:01.381Z,989.99
2019-04-23T12:34:59.398Z,989.93
2019-04-23T12:35:50.154Z,989.88
2019-04-23T12:36:58.500Z,989.95
2019-04-23T12:37:53.845Z,989.79
2019-04-23T12:38:56.759Z,989.68
2019-04-23T12:40:03.301Z,989.69
2019-04-23T12:42:08.558Z,989.65
2019-04-23T12:43:07.807Z,989.60
2019-04-23T12:43:57.957Z,989.55
2019-04-23T12:45:50.072Z,989.46
2019-04-23T12:47:05.732Z,989.42
2019-04-23T12:48:09.571Z,989.55
2019-04-23T12:52:05.000Z,989.52
2019-04-23T12:53:57.744Z,989.53
2019-04-23T12:55:08.509Z,989.51
2019-04-23T12:56:02.015Z,989.62
2019-04-23T12:57:04.782Z,989.59
2019-04-23T12:58:51.528Z,989.60
2019-04-23T13:00:03.016Z,989.53
2019-04-23T13:00:51.542Z,989.61
2019-04-23T13:02:08.233Z,989.59
2019-04-23T13:03:02.769Z,989.59
2019-04-23T13:03:50.824Z,989.62
2019-04-23T13:05:04.412Z,989.66
2019-04-23T13:05:55.360Z,989.55
2019-04-23T13:06:57.869Z,989.59
2019-04-23T13:07:58.555Z,989.61
2019-04-23T13:09:05.456Z,989.47
2019-04-23T13:09:58.390Z,989.49
2019-04-23T13:10:59.052Z,989.47
2019-04-23T13:11:58.022Z,989.46
2019-04-23T13:13:11.342Z,989.37
2019-04-23T13:14:08.563Z,989.38
2019-04-23T13:16:05.897Z,989.38
2019-04-23T13:19:06.223Z,989.28
2019-04-23T13:21:07.050Z,989.40
2019-04-23T13:24:07.646Z,989.40
2019-04-23T13:25:02.426Z,989.32
2019-04-23T13:25:57.160Z,989.40
2019-04-23T13:27:12.039Z,989.50
2019-04-23T13:28:08.331Z,989.34
2019-04-23T13:29:12.101Z,989.44
2019-04-23T13:30:16.934Z,989.43
2019-04-23T13:31:06.623Z,989.46
2019-04-23T13:32:04.420Z,989.42
2019-04-23T13:33:08.052Z,989.56
2019-04-23T13:34:07.989Z,989.56
2019-04-23T13:35:18.611Z,989.58
2019-04-23T13:36:08.648Z,989.52
2019-04-23T13:37:16.204Z,989.50
2019-04-23T13:38:10.406Z,989.58
2019-04-23T13:39:05.341Z,989.64
2019-04-23T13:40:08.680Z,989.66
2019-04-23T13:41:11.101Z,989.62
2019-04-23T13:42:14.833Z,989.61
2019-04-23T13:43:13.951Z,989.58
2019-04-23T13:44:08.564Z,989.67
2019-04-23T13:47:15.695Z,989.63
2019-04-23T13:48:06.346Z,989.64
2019-04-23T13:49:02.123Z,989.59
2019-04-23T13:50:19.485Z,989.67
2019-04-23T13:51:19.386Z,989.63
2019-04-23T13:52:39.496Z,989.70
2019-04-23T13:53:18.554Z,989.66
2019-04-23T13:54:15.848Z,989.68
2019-04-23T13:55:18.760Z,989.64
2019-04-23T13:56:18.652Z,989.67
2019-04-23T13:58:20.881Z,989.66
2019-04-23T13:59:15.884Z,989.78
2019-04-23T14:00:21.103Z,989.78
2019-04-23T14:01:18.337Z,989.76
2019-04-23T14:02:17.802Z,989.74
2019-04-23T14:03:13.956Z,989.75
2019-04-23T14:04:16.216Z,989.79
2019-04-23T14:05:12.954Z,989.71
2019-04-23T14:06:22.788Z,989.76
2019-04-23T14:07:15.031Z,989.67
2019-04-23T14:10:18.279Z,989.72
2019-04-23T14:12:08.307Z,989.76
2019-04-23T14:14:19.672Z,989.71
2019-04-23T14:16:23.127Z,989.90
2019-04-23T14:17:38.062Z,989.88
2019-04-23T14:18:43.183Z,989.80
2019-04-23T14:19:23.205Z,989.80
2019-04-23T14:20:14.505Z,989.81
2019-04-23T14:21:25.284Z,989.80
2019-04-23T14:22:33.775Z,989.80
2019-04-23T14:23:41.173Z,989.81
2019-04-23T14:25:14.338Z,989.86
2019-04-23T14:27:24.472Z,989.77
2019-04-23T14:28:22.078Z,989.74
2019-04-23T14:29:15.012Z,989.68
2019-04-23T14:30:21.903Z,989.65
2019-04-23T14:31:20.467Z,989.66
2019-04-23T14:32:29.319Z,989.70
2019-04-23T14:33:26.538Z,989.71
2019-04-23T14:35:25.542Z,989.69
2019-04-23T14:36:19.264Z,989.69
2019-04-23T14:38:27.179Z,989.68
2019-04-23T14:39:22.133Z,989.68
2019-04-23T14:41:23.624Z,989.64
2019-04-23T14:42:33.323Z,989.67
2019-04-23T14:43:25.914Z,989.62
2019-04-23T14:44:17.990Z,989.74
2019-04-23T14:45:29.601Z,989.53
2019-04-23T14:47:24.279Z,989.52
2019-04-23T14:49:18.611Z,989.51
2019-04-23T14:52:21.672Z,989.51
2019-04-23T14:53:31.077Z,989.42
2019-04-23T14:54:35.970Z,989.49
2019-04-23T14:57:24.528Z,989.52
2019-04-23T14:59:39.347Z,989.49
2019-04-23T15:00:28.634Z,989.59
2019-04-23T15:01:34.710Z,989.41
2019-04-23T15:02:27.151Z,989.40
2019-04-23T15:03:28.758Z,989.39
2019-04-23T15:04:20.455Z,989.40
2019-04-23T15:05:26.874Z,989.37
2019-04-23T15:07:28.620Z,989.38
2019-04-23T15:09:28.059Z,989.35
2019-04-23T15:10:24.802Z,989.36
2019-04-23T15:11:27.544Z,989.46
2019-04-23T15:12:32.267Z,989.37
2019-04-23T15:13:22.716Z,989.35
2019-04-23T15:14:25.465Z,989.34
2019-04-23T15:18:35.677Z,989.55
2019-04-23T15:19:36.865Z,989.49
2019-04-23T15:20:25.330Z,989.44
2019-04-23T15:23:41.702Z,989.55
2019-04-23T15:24:25.964Z,989.49
2019-04-23T15:25:36.994Z,989.54
2019-04-23T15:28:07.484Z,989.48
2019-04-23T15:29:09.688Z,989.50
2019-04-23T15:31:24.797Z,989.48
2019-04-23T15:32:25.393Z,989.41
2019-04-23T15:34:45.358Z,989.41
2019-04-23T15:35:57.571Z,989.42
2019-04-23T15:37:58.392Z,989.36
2019-04-23T15:39:31.054Z,989.40
2019-04-23T15:40:24.912Z,989.38
2019-04-23T15:41:33.456Z,989.29
2019-04-23T15:43:30.807Z,989.49
2019-04-23T15:44:21.823Z,989.39
2019-04-23T15:45:32.683Z,989.35
2019-04-23T15:47:35.471Z,989.34